Time;durP1;ratioP1;P1;durP2;ratioP2;P2;SDS_P1;SDS_P2;PMS_P1;PMS_P2;Temp;Humidity;BMP_temperature;BMP_pressure;BME280_temperature;BME280_humidity;BME280_pressure;Samples;Min_cycle;Max_cycle;Signal;HPM_P1;HPM_P2
2023/06/13 00:01:24;;;;;;;3.95;3.03;;;;;;;14.34;69.80;100012.06;10419800;28;20041;-69
2023/06/13 00:06:29;;;;;;;5.07;3.35;;;;;;;14.21;70.36;100011.81;10419132;28;20053;-69
2023/06/13 00:11:30;;;;;;;3.15;2.90;;;;;;;14.20;70.29;100006.56;10418851;28;20041;-69
2023/06/13 00:16:32;;;;;;;5.28;3.50;;;;;;;14.26;70.69;100007.16;10418625;28;20049;-69
2023/06/13 00:21:35;;;;;;;3.97;3.63;;;;;;;14.48;69.41;100001.72;10417520;28;20132;-69
2023/06/13 00:26:37;;;;;;;5.38;4.88;;;;;;;14.33;69.82;100005.91;10418167;28;20050;-69
2023/06/13 00:31:40;;;;;;;6.90;4.07;;;;;;;14.37;69.95;100011.91;10419188;28;20513;-69
2023/06/13 00:36:43;;;;;;;5.32;4.35;;;;;;;14.44;69.16;100000.13;10417528;28;20038;-69
2023/06/13 00:41:45;;;;;;;5.95;4.10;;;;;;;14.19;70.32;99996.94;10417893;28;20042;-69
2023/06/13 00:46:47;;;;;;;9.60;5.03;;;;;;;13.82;71.53;99994.22;10417345;28;20045;-69
2023/06/13 00:51:49;;;;;;;4.93;4.22;;;;;;;14.00;69.74;99994.31;10416980;28;20495;-69
2023/06/13 00:56:52;;;;;;;4.55;4.15;;;;;;;13.79;71.89;99990.84;10415793;28;20045;-69
2023/06/13 01:01:55;;;;;;;7.22;4.55;;;;;;;13.65;71.91;99990.63;10416565;28;20085;-70
2023/06/13 01:06:57;;;;;;;5.15;4.75;;;;;;;13.93;70.89;99990.22;10417462;28;20375;-70
2023/06/13 01:12:17;;;;;;;3.58;3.28;;;;;;;13.71;71.83;99991.19;10418506;28;20065;-70
2023/06/13 01:17:27;;;;;;;5.53;3.67;;;;;;;13.73;71.76;99983.22;10418141;28;20406;-70
2023/06/13 01:22:45;;;;;;;4.28;3.88;;;;;;;13.31;73.58;99985.03;10416326;28;20051;-70
2023/06/13 01:27:53;;;;;;;5.95;4.80;;;;;;;13.43;71.75;99988.09;10415820;28;20059;-70
2023/06/13 01:32:55;;;;;;;7.47;6.25;;;;;;;13.37;71.58;99983.94;10417956;28;20041;-70
2023/06/13 01:37:57;;;;;;;6.70;5.68;;;;;;;13.40;71.61;99978.50;10416076;28;20545;-70
2023/06/13 01:42:59;;;;;;;5.68;5.18;;;;;;;13.08;74.39;99967.53;10416267;28;20120;-70
2023/06/13 01:48:29;;;;;;;9.07;7.00;;;;;;;13.26;73.49;99963.28;10416932;28;20414;-69
2023/06/13 01:53:42;;;;;;;6.10;5.22;;;;;;;13.12;73.95;99953.28;10414420;28;20050;-70
2023/06/13 01:58:52;;;;;;;5.97;5.38;;;;;;;12.73;76.74;99957.63;10416108;28;20061;-70
2023/06/13 02:03:54;;;;;;;8.23;7.00;;;;;;;12.80;76.22;99948.53;10414867;28;20133;-68
2023/06/13 02:08:56;;;;;;;7.38;6.32;;;;;;;12.81;75.58;99952.91;10416269;28;20124;-68
2023/06/13 02:13:58;;;;;;;7.25;6.00;;;;;;;12.76;75.99;99949.59;10415973;28;20045;-68
2023/06/13 02:19:00;;;;;;;8.25;6.47;;;;;;;12.69;76.92;99948.13;10414388;28;20054;-68
2023/06/13 02:24:02;;;;;;;8.32;6.00;;;;;;;12.73;76.75;99950.56;10414527;28;20033;-69
2023/06/13 02:29:04;;;;;;;5.60;5.03;;;;;;;12.88;75.38;99946.41;10417761;28;20096;-69
2023/06/13 02:34:06;;;;;;;6.18;5.65;;;;;;;12.73;75.87;99947.06;10415526;28;20132;-69
2023/06/13 02:39:08;;;;;;;6.97;5.85;;;;;;;12.48;77.44;99957.78;10413523;28;20046;-69
2023/06/13 02:44:09;;;;;;;6.07;5.35;;;;;;;12.07;79.25;99953.25;10414897;28;20124;-69
2023/06/13 02:49:11;;;;;;;7.88;5.43;;;;;;;12.29;77.70;99957.66;10415596;28;20087;-69
2023/06/13 02:54:13;;;;;;;7.10;4.72;;;;;;;12.10;78.04;99954.91;10413299;28;20057;-69
2023/06/13 02:59:15;;;;;;;4.93;4.50;;;;;;;12.13;78.80;99954.78;10414451;28;20052;-69
2023/06/13 03:04:18;;;;;;;7.60;5.10;;;;;;;12.27;76.52;99959.53;10420665;28;20037;-70
2023/06/13 03:09:21;;;;;;;11.27;6.10;;;;;;;12.08;75.66;99962.84;10421738;28;20052;-69
2023/06/13 03:14:23;;;;;;;6.28;5.28;;;;;;;12.08;76.38;99962.84;10421216;28;20073;-69
2023/06/13 03:19:26;;;;;;;7.53;5.55;;;;;;;12.18;74.79;99957.25;10419960;28;20528;-69
2023/06/13 03:24:32;;;;;;;7.63;5.60;;;;;;;12.08;74.73;99962.84;10419605;28;20090;-69
2023/06/13 03:29:34;;;;;;;5.70;4.60;;;;;;;12.37;73.06;99959.06;10421751;28;20042;-69
2023/06/13 03:34:38;;;;;;;14.05;5.22;;;;;;;12.24;74.67;99962.25;10419930;28;20059;-69
2023/06/13 03:39:42;;;;;;;5.60;4.53;;;;;;;12.33;73.17;99962.75;10419585;28;20049;-69
2023/06/13 03:44:46;;;;;;;5.68;4.55;;;;;;;12.26;74.51;99965.69;10418843;28;20052;-69
2023/06/13 03:49:48;;;;;;;7.40;5.25;;;;;;;12.55;71.14;99967.16;10420742;28;20090;-69
2023/06/13 03:54:51;;;;;;;10.23;5.30;;;;;;;12.48;71.00;99971.81;10419059;28;20049;-69
2023/06/13 03:59:55;;;;;;;7.63;4.88;;;;;;;12.51;71.02;99955.03;10420196;28;20403;-69
2023/06/13 04:04:57;;;;;;;15.10;6.20;;;;;;;12.34;73.66;99961.81;10418762;28;20569;-69
2023/06/13 04:10:00;;;;;;;11.35;5.32;;;;;;;12.40;73.52;99960.75;10419190;28;20080;-69
2023/06/13 04:15:03;;;;;;;6.82;4.97;;;;;;;12.43;74.26;99957.97;10419156;28;20132;-69
2023/06/13 04:20:05;;;;;;;5.72;4.75;;;;;;;12.54;72.91;99957.53;10418749;28;20549;-68
2023/06/13 04:25:07;;;;;;;6.13;4.40;;;;;;;12.43;73.32;99952.69;10419359;28;20065;-69
2023/06/13 04:30:10;;;;;;;5.38;4.68;;;;;;;12.55;73.55;99962.75;10419554;28;20130;-69
2023/06/13 04:35:16;;;;;;;6.65;6.05;;;;;;;12.54;72.89;99955.75;10418643;28;20062;-69
2023/06/13 04:40:18;;;;;;;6.15;4.85;;;;;;;12.70;72.52;99953.31;10419591;28;20108;-69
2023/06/13 04:45:21;;;;;;;5.65;4.22;;;;;;;13.04;71.75;99965.97;10432809;23;20073;-74
2023/06/13 04:50:25;;;;;;;7.45;3.92;;;;;;;13.47;70.10;99965.91;10418963;28;20129;-73
2023/06/13 04:55:32;;;;;;;5.20;3.80;;;;;;;13.80;68.49;99964.34;10418733;28;20045;-74
2023/06/13 05:00:34;;;;;;;;;;;;;;;13.70;66.44;99959.56;10416908;28;20072;-73
2023/06/13 05:05:36;;;;;;;4.65;4.05;;;;;;;13.89;65.92;99971.00;10418808;28;20008;-72
2023/06/13 05:10:38;;;;;;;4.20;3.80;;;;;;;14.56;63.20;99961.66;10417607;28;20056;-75
2023/06/13 05:15:42;;;;;;;4.00;3.60;;;;;;;14.95;61.60;99950.00;10418216;28;20128;-72
2023/06/13 05:20:45;;;;;;;5.13;3.35;;;;;;;15.50;60.93;99941.84;10416624;28;20041;-73
2023/06/13 05:25:48;;;;;;;5.15;3.83;;;;;;;15.28;58.96;99932.41;10414670;28;20045;-74
2023/06/13 05:30:51;;;;;;;4.65;4.13;;;;;;;15.96;56.51;99936.72;10416701;28;20041;-73
2023/06/13 05:35:53;;;;;;;6.90;4.55;;;;;;;16.28;56.13;99935.75;10416670;28;20052;-74
2023/06/13 05:40:59;;;;;;;8.18;3.85;;;;;;;16.16;56.13;99933.81;10416207;28;20041;-73
2023/06/13 05:46:00;;;;;;;5.10;3.35;;;;;;;16.67;54.62;99923.78;10414614;28;20510;-74
2023/06/13 05:51:04;;;;;;;5.22;3.30;;;;;;;17.22;52.24;99924.97;10415940;28;20120;-73
2023/06/13 05:56:06;;;;;;;6.45;4.32;;;;;;;17.66;53.17;99935.50;10416738;28;20068;-73
2023/06/13 06:01:10;;;;;;;3.97;3.00;;;;;;;17.80;51.86;99935.56;10414648;28;20156;-73
2023/06/13 06:06:12;;;;;;;3.25;2.92;;;;;;;18.17;49.86;99929.69;10415452;28;20454;-74
2023/06/13 06:11:14;;;;;;;6.50;3.55;;;;;;;18.58;48.96;99933.13;10415432;28;20048;-75
2023/06/13 06:16:16;;;;;;;6.90;3.70;;;;;;;18.80;48.37;99918.41;10415192;28;20100;-74
2023/06/13 06:21:18;;;;;;;5.65;3.83;;;;;;;19.32;46.63;99931.66;10413681;28;20048;-73
2023/06/13 06:26:21;;;;;;;6.65;3.58;;;;;;;19.50;47.56;99920.69;10415239;28;20116;-72
2023/06/13 06:31:24;;;;;;;10.48;5.07;;;;;;;19.33;47.12;99921.84;10415227;28;20041;-74
2023/06/13 06:36:26;;;;;;;7.15;4.47;;;;;;;19.19;47.62;99917.50;10418193;28;20128;-72
2023/06/13 06:41:27;;;;;;;8.20;4.18;;;;;;;19.41;47.60;99916.84;10423079;28;20065;-74
2023/06/13 06:46:29;;;;;;;8.25;4.55;;;;;;;20.22;45.99;99920.84;10421550;28;20076;-72
2023/06/13 06:51:31;;;;;;;7.32;4.00;;;;;;;20.95;43.90;99907.34;10423243;28;20398;-74
2023/06/13 06:56:33;;;;;;;9.48;4.60;;;;;;;21.20;44.49;99900.94;10421602;28;20056;-73
2023/06/13 07:01:35;;;;;;;5.63;3.25;;;;;;;21.84;42.13;99908.41;10421223;28;20041;-72
2023/06/13 07:06:37;;;;;;;6.63;4.03;;;;;;;21.99;40.67;99898.28;10422256;28;20065;-73
2023/06/13 07:11:38;;;;;;;4.80;3.60;;;;;;;22.28;41.30;99893.25;10421019;28;20049;-73
2023/06/13 07:16:41;;;;;;;8.00;3.72;;;;;;;22.02;41.82;99888.16;10422180;28;20076;-72
2023/06/13 07:21:43;;;;;;;12.00;3.97;;;;;;;22.01;42.84;99875.78;10421678;28;20122;-73
2023/06/13 07:26:47;;;;;;;7.32;3.50;;;;;;;22.27;41.31;99878.13;10432078;28;20470;-73
2023/06/13 07:31:49;;;;;;;5.20;3.22;;;;;;;22.82;39.91;99876.19;10429394;28;20481;-72
2023/06/13 07:36:51;;;;;;;8.98;3.50;;;;;;;22.92;40.35;99872.63;10430367;28;20081;-73
2023/06/13 07:41:53;;;;;;;6.80;3.03;;;;;;;23.23;39.02;99861.91;10451855;28;20140;-72
2023/06/13 07:46:55;;;;;;;5.55;3.30;;;;;;;23.10;39.58;99862.13;10421733;28;20060;-75
2023/06/13 07:51:56;;;;;;;7.05;3.42;;;;;;;22.51;39.68;99859.19;10430754;28;20568;-72
2023/06/13 07:56:58;;;;;;;5.53;3.08;;;;;;;22.63;39.92;99864.38;10461197;28;20053;-72
2023/06/13 08:02:02;;;;;;;3.58;2.83;;;;;;;23.12;38.67;99859.34;10460691;28;20041;-74
2023/06/13 08:07:04;;;;;;;5.18;3.00;;;;;;;23.42;38.43;99856.66;10443268;28;20055;-73
2023/06/13 08:12:06;;;;;;;3.63;2.67;;;;;;;24.03;37.25;99857.53;10424748;28;20069;-75
2023/06/13 08:17:08;;;;;;;7.45;3.05;;;;;;;23.69;37.56;99851.69;10419156;28;20056;-74
2023/06/13 08:22:10;;;;;;;5.75;3.08;;;;;;;24.55;36.09;99847.41;10419285;28;20095;-73
2023/06/13 08:27:16;;;;;;;8.70;3.22;;;;;;;24.76;36.43;99836.50;10419077;28;20056;-72
2023/06/13 08:32:20;;;;;;;6.32;2.72;;;;;;;25.46;33.49;99840.56;10417632;28;20060;-73
2023/06/13 08:37:22;;;;;;;5.43;2.50;;;;;;;24.83;35.05;99838.44;10417017;28;20107;-73
2023/06/13 08:42:25;;;;;;;7.10;2.60;;;;;;;24.90;34.36;99831.50;10422296;28;20136;-74
2023/06/13 08:47:28;;;;;;;5.82;2.70;;;;;;;24.96;35.20;99832.75;10458535;28;20057;-73
2023/06/13 08:52:43;;;;;;;4.10;2.60;;;;;;;25.70;33.75;99823.84;10459391;28;20037;-74
2023/06/13 08:57:52;;;;;;;3.80;2.10;;;;;;;25.91;32.77;99826.31;10458109;28;20063;-73
2023/06/13 09:02:55;;;;;;;2.08;1.88;;;;;;;25.71;32.43;99824.69;10457165;28;20490;-73
2023/06/13 09:07:58;;;;;;;4.55;2.10;;;;;;;25.48;33.99;99814.34;10457493;28;20118;-73
2023/06/13 09:13:19;;;;;;;3.90;1.83;;;;;;;25.53;31.42;99816.56;10458706;28;20045;-73
2023/06/13 09:18:21;;;;;;;3.00;1.77;;;;;;;25.39;31.18;99812.53;10456927;28;20076;-73
2023/06/13 09:23:25;;;;;;;2.65;1.70;;;;;;;25.48;32.70;99803.56;10456719;28;20044;-73
2023/06/13 09:28:32;;;;;;;4.25;1.80;;;;;;;25.64;30.00;99808.31;10458042;28;20465;-73
2023/06/13 09:33:35;;;;;;;4.25;1.70;;;;;;;25.99;27.90;99793.22;10457619;28;20045;-73
2023/06/13 09:38:40;;;;;;;4.20;1.83;;;;;;;25.74;29.62;99800.16;10457492;28;20055;-73
2023/06/13 09:43:42;;;;;;;4.47;2.17;;;;;;;25.03;28.72;99790.88;10457197;28;20513;-73
2023/06/13 09:48:45;;;;;;;7.22;1.60;;;;;;;24.56;31.20;99779.25;10456232;28;20053;-73
2023/06/13 09:53:47;;;;;;;6.63;2.03;;;;;;;24.69;30.24;99779.78;10457544;28;20450;-73
2023/06/13 09:58:52;;;;;;;3.10;1.70;;;;;;;24.68;32.33;99764.66;10458495;28;20052;-73
2023/06/13 10:03:55;;;;;;;4.22;2.20;;;;;;;23.92;33.35;99767.25;10457803;28;20483;-73
2023/06/13 10:08:57;;;;;;;4.65;2.13;;;;;;;24.06;32.02;99760.63;10455601;28;20045;-73
2023/06/13 10:14:33;;;;;;;4.20;2.45;;;;;;;23.89;33.80;99756.78;10455411;28;20037;-74
2023/06/13 10:19:37;;;;;;;;;;;;;;;23.46;35.26;99751.75;10331055;28;20062;-73
2023/06/13 10:24:40;;;;;;;4.15;2.22;;;;;;;23.11;35.11;99745.88;10329642;28;20028;-74
2023/06/13 10:30:09;;;;;;;4.13;2.40;;;;;;;22.97;35.27;99746.25;10329989;28;20512;-73
2023/06/13 10:35:44;;;;;;;6.80;2.20;;;;;;;22.78;36.79;99736.25;10314101;28;20054;-74
2023/06/13 10:40:52;;;;;;;;;;;;;;;23.39;36.72;99733.53;10314226;28;20513;-74
2023/06/13 10:45:57;;;;;;;4.00;1.92;;;;;;;23.82;35.48;99728.84;10341243;22;20019;-72
2023/06/13 10:50:58;;;;;;;4.30;2.17;;;;;;;24.17;34.36;99717.47;10390208;28;20096;-72
2023/06/13 10:56:02;;;;;;;3.60;2.05;;;;;;;24.32;34.52;99723.28;10374276;28;20068;-72
2023/06/13 11:01:27;;;;;;;2.25;2.05;;;;;;;24.12;33.93;99720.59;10374418;28;20045;-73
2023/06/13 11:06:29;;;;;;;3.35;2.08;;;;;;;24.19;33.83;99712.84;10373881;28;20045;-73
2023/06/13 11:11:39;;;;;;;3.50;2.20;;;;;;;24.15;33.02;99709.59;10373691;28;20065;-72
2023/06/13 11:16:43;;;;;;;5.88;1.90;;;;;;;23.72;34.25;99699.28;10374474;28;20579;-72
2023/06/13 11:21:46;;;;;;;3.47;1.95;;;;;;;24.14;34.11;99691.78;10372845;28;20049;-72
2023/06/13 11:26:48;;;;;;;3.03;1.90;;;;;;;24.74;33.58;99686.09;10381035;28;20484;-73
2023/06/13 11:31:51;;;;;;;4.32;2.30;;;;;;;25.37;33.68;99688.09;10381256;28;20419;-76
2023/06/13 11:36:57;;;;;;;2.67;2.10;;;;;;;25.10;31.53;99688.94;10380605;28;20060;-75
2023/06/13 11:41:59;;;;;;;6.00;2.55;;;;;;;25.10;31.22;99687.13;10381927;28;20037;-71
2023/06/13 11:47:01;;;;;;;2.67;2.35;;;;;;;24.74;30.41;99674.50;10381504;28;20052;-73
2023/06/13 11:52:14;;;;;;;4.70;2.03;;;;;;;24.58;35.33;99686.75;10382352;28;20052;-74
2023/06/13 11:57:16;;;;;;;3.05;2.50;;;;;;;25.14;36.62;99674.19;10382715;28;20503;-73
2023/06/13 12:02:18;;;;;;;3.75;2.20;;;;;;;25.06;34.39;99661.50;10381797;28;20073;-73
2023/06/13 12:07:20;;;;;;;4.05;2.88;;;;;;;25.27;34.20;99666.59;10381678;28;20053;-73
2023/06/13 12:12:22;;;;;;;6.22;2.28;;;;;;;25.03;34.42;99656.41;10380643;28;20045;-73
2023/06/13 12:17:26;;;;;;;4.25;2.33;;;;;;;24.05;35.31;99662.28;10380642;28;20045;-72
2023/06/13 12:22:28;;;;;;;4.88;2.60;;;;;;;23.66;36.90;99665.81;10379980;28;20041;-72
2023/06/13 12:27:31;;;;;;;2.10;1.75;;;;;;;23.33;35.81;99655.44;10379635;28;20054;-72
2023/06/13 12:32:37;;;;;;;2.90;2.05;;;;;;;23.58;36.42;99649.53;10380092;28;20048;-73
2023/06/13 12:37:39;;;;;;;13.20;2.10;;;;;;;23.53;36.66;99653.66;10378955;28;20049;-73
2023/06/13 12:42:42;;;;;;;3.33;2.38;;;;;;;23.36;38.07;99655.19;10378327;28;20045;-72
2023/06/13 12:47:45;;;;;;;3.97;2.53;;;;;;;23.06;36.54;99664.16;10380224;28;20041;-72
2023/06/13 12:52:46;;;;;;;6.35;2.55;;;;;;;23.26;36.91;99657.84;10379002;28;20042;-73
2023/06/13 12:57:48;;;;;;;2.55;2.20;;;;;;;23.43;38.00;99659.00;10379337;28;20492;-73
2023/06/13 13:02:51;;;;;;;5.32;2.75;;;;;;;23.39;37.29;99660.28;10379281;28;20553;-68
2023/06/13 13:07:54;;;;;;;16.60;3.72;;;;;;;23.50;37.13;99667.34;10379532;28;20414;-73
2023/06/13 13:12:56;;;;;;;4.45;2.47;;;;;;;23.36;37.20;99666.75;10379056;28;20403;-75
2023/06/13 13:17:58;;;;;;;4.43;2.38;;;;;;;23.37;36.03;99675.66;10379370;28;20053;-74
2023/06/13 13:23:00;;;;;;;4.38;2.25;;;;;;;22.89;38.13;99671.00;10377843;28;20399;-74
2023/06/13 13:28:04;;;;;;;7.43;1.90;;;;;;;22.82;38.71;99667.16;10379447;28;20037;-75
2023/06/13 13:33:05;;;;;;;5.82;2.78;;;;;;;22.97;39.17;99652.41;10378540;28;20415;-76
2023/06/13 13:38:07;;;;;;;3.35;2.72;;;;;;;23.23;39.30;99655.44;10377971;28;20068;-75
2023/06/13 13:43:09;;;;;;;3.38;2.15;;;;;;;23.35;37.80;99658.84;10376386;28;20045;-76
2023/06/13 13:48:13;;;;;;;4.07;2.47;;;;;;;23.65;39.13;99664.13;10376818;28;20045;-76
2023/06/13 13:53:17;;;;;;;3.47;2.05;;;;;;;24.09;37.16;99659.16;10376840;28;20144;-74
2023/06/13 13:58:19;;;;;;;4.80;2.08;;;;;;;23.83;37.22;99660.75;10378389;28;20078;-75
2023/06/13 14:03:20;;;;;;;1.88;1.77;;;;;;;23.23;37.73;99662.66;10376378;28;20088;-73
2023/06/13 14:08:22;;;;;;;4.38;2.42;;;;;;;23.22;39.49;99664.47;10377671;28;20066;-75
2023/06/13 14:13:25;;;;;;;6.72;2.28;;;;;;;22.77;34.47;99664.06;10378021;28;20069;-73
2023/06/13 14:18:27;;;;;;;5.70;2.30;;;;;;;23.05;34.75;99682.06;10377556;28;20527;-73
2023/06/13 14:23:29;;;;;;;3.63;2.20;;;;;;;22.87;34.16;99671.13;10376897;28;20042;-74
2023/06/13 14:28:30;;;;;;;3.95;2.63;;;;;;;22.57;34.49;99655.06;10375858;28;20045;-74
2023/06/13 14:33:32;;;;;;;4.13;2.30;;;;;;;22.28;35.20;99660.31;10376663;28;20038;-74
2023/06/13 14:38:38;;;;;;;3.75;2.63;;;;;;;22.20;34.70;99658.28;10377236;28;20046;-74
2023/06/13 14:43:41;;;;;;;9.40;2.80;;;;;;;22.04;35.51;99660.53;10377948;28;20080;-75
2023/06/13 14:48:42;;;;;;;5.50;2.58;;;;;;;21.82;34.98;99669.53;10375025;28;20088;-74
2023/06/13 14:53:45;;;;;;;4.95;2.90;;;;;;;21.54;35.85;99673.69;10376798;28;20503;-74
2023/06/13 14:58:46;;;;;;;9.18;2.75;;;;;;;21.34;36.40;99694.91;10382779;28;20054;-73
2023/06/13 15:03:50;;;;;;;5.20;2.67;;;;;;;21.29;37.36;99690.84;10387118;28;20045;-74
2023/06/13 15:08:51;;;;;;;5.60;3.03;;;;;;;21.18;37.46;99691.72;10387426;28;20431;-74
2023/06/13 15:13:53;;;;;;;4.72;2.88;;;;;;;21.14;37.83;99699.16;10384027;28;20070;-71
2023/06/13 15:18:55;;;;;;;8.02;2.92;;;;;;;21.50;36.78;99688.28;10383938;28;20049;-73
2023/06/13 15:23:58;;;;;;;4.97;3.33;;;;;;;21.88;36.87;99680.56;10382025;28;20088;-72
2023/06/13 15:29:00;;;;;;;9.13;3.20;;;;;;;22.42;35.81;99676.03;10383083;28;20125;-73
2023/06/13 15:34:03;;;;;;;6.13;2.90;;;;;;;22.46;35.28;99680.13;10381892;28;20559;-73
2023/06/13 15:39:06;;;;;;;6.28;2.92;;;;;;;22.63;35.17;99684.03;10383035;28;20050;-72
2023/06/13 15:44:08;;;;;;;7.20;3.10;;;;;;;22.88;34.59;99691.56;10382099;28;20076;-72
2023/06/13 15:49:10;;;;;;;6.30;3.08;;;;;;;22.66;34.27;99689.94;10382683;28;20037;-72
2023/06/13 15:54:11;;;;;;;4.97;2.38;;;;;;;22.32;34.93;99697.41;10380227;28;20607;-73
2023/06/13 15:59:13;;;;;;;4.72;2.78;;;;;;;21.96;36.17;99689.75;10380891;28;20389;-73
2023/06/13 16:04:15;;;;;;;4.53;2.65;;;;;;;21.43;37.22;99706.66;10380040;28;20084;-72
2023/06/13 16:09:18;;;;;;;5.57;3.42;;;;;;;20.95;38.97;99714.97;10380042;28;20393;-72
2023/06/13 16:14:19;;;;;;;5.25;3.63;;;;;;;20.82;39.92;99728.44;10380876;28;20121;-72
2023/06/13 16:19:23;;;;;;;8.98;3.17;;;;;;;20.80;40.52;99722.38;10381109;28;20474;-72
2023/06/13 16:24:25;;;;;;;3.03;2.75;;;;;;;20.70;40.77;99742.75;10379957;28;20046;-71
2023/06/13 16:29:27;;;;;;;9.13;3.97;;;;;;;20.73;41.26;99739.00;10380907;28;20050;-73
2023/06/13 16:34:29;;;;;;;4.25;2.67;;;;;;;20.91;41.02;99750.91;10380852;28;20069;-72
2023/06/13 16:39:32;;;;;;;9.95;2.97;;;;;;;20.94;41.34;99753.34;10379407;28;20689;-75
2023/06/13 16:44:34;;;;;;;5.50;3.25;;;;;;;20.94;40.78;99741.78;10378016;28;20046;-73
2023/06/13 16:49:36;;;;;;;2.63;2.35;;;;;;;21.01;40.67;99743.88;10428730;23;20045;-71
2023/06/13 16:54:38;;;;;;;5.75;2.88;;;;;;;20.90;40.22;99744.72;10418992;28;20116;-70
2023/06/13 16:59:39;;;;;;;5.32;4.00;;;;;;;20.86;40.47;99747.75;10419035;28;20422;-71
2023/06/13 17:04:41;;;;;;;3.13;2.70;;;;;;;20.88;39.48;99748.47;10417651;28;20180;-72
2023/06/13 17:09:43;;;;;;;3.40;2.50;;;;;;;20.76;39.92;99746.75;10417681;28;20516;-71
2023/06/13 17:14:44;;;;;;;2.58;2.35;;;;;;;20.71;39.95;99746.28;10418160;28;20550;-73
2023/06/13 17:19:46;;;;;;;3.78;2.65;;;;;;;20.53;40.66;99749.41;10418199;28;20096;-72
2023/06/13 17:24:48;;;;;;;4.68;2.40;;;;;;;20.53;40.40;99738.72;10418694;28;20037;-72
2023/06/13 17:29:50;;;;;;;2.97;2.30;;;;;;;20.35;40.86;99746.31;10421422;28;20041;-71
2023/06/13 17:34:53;;;;;;;3.20;2.03;;;;;;;20.21;40.66;99745.69;10426664;28;20100;-70
2023/06/13 17:39:56;;;;;;;2.53;2.28;;;;;;;20.28;40.29;99741.59;10430582;28;20120;-71
2023/06/13 17:44:58;;;;;;;3.28;2.22;;;;;;;20.39;40.98;99749.59;10420182;28;20065;-71
2023/06/13 17:50:00;;;;;;;4.07;2.00;;;;;;;20.34;40.95;99743.78;10417096;28;20132;-73
2023/06/13 17:55:02;;;;;;;2.60;2.00;;;;;;;20.07;41.62;99749.41;10415985;28;20096;-72
2023/06/13 18:00:06;;;;;;;2.47;1.80;;;;;;;19.65;42.42;99748.97;10417230;28;20041;-72
2023/06/13 18:05:13;;;;;;;4.35;2.30;;;;;;;19.25;44.39;99761.66;10417637;28;20091;-72
2023/06/13 18:10:17;;;;;;;3.03;2.03;;;;;;;18.94;45.18;99773.63;10417351;28;20046;-75
2023/06/13 18:15:19;;;;;;;1.92;1.73;;;;;;;18.58;44.59;99781.38;10416950;28;20095;-70
2023/06/13 18:20:21;;;;;;;2.15;1.80;;;;;;;18.35;45.57;99780.31;10416413;28;20050;-72
2023/06/13 18:25:23;;;;;;;1.85;1.65;;;;;;;18.13;46.92;99796.00;10416382;28;20052;-72
2023/06/13 18:30:25;;;;;;;5.85;2.33;;;;;;;18.05;48.35;99796.50;10414676;28;20482;-72
2023/06/13 18:35:27;;;;;;;5.40;2.70;;;;;;;17.85;49.76;99799.66;10424102;28;20384;-73
2023/06/13 18:40:29;;;;;;;2.13;1.80;;;;;;;17.77;50.61;99807.28;10423844;28;20052;-73
2023/06/13 18:45:31;;;;;;;5.05;2.00;;;;;;;17.73;51.61;99803.06;10424536;28;20042;-73
2023/06/13 18:50:33;;;;;;;3.20;2.25;;;;;;;17.77;52.19;99817.91;10426610;28;20107;-72
2023/06/13 18:55:35;;;;;;;4.43;1.90;;;;;;;17.61;52.86;99816.19;10424353;28;20036;-71
2023/06/13 19:00:41;;;;;;;2.55;1.80;;;;;;;17.32;53.92;99818.06;10423497;28;20410;-71
2023/06/13 19:05:43;;;;;;;3.47;2.25;;;;;;;17.17;54.35;99836.75;10421618;28;20049;-72
2023/06/13 19:10:45;;;;;;;2.85;1.88;;;;;;;16.93;54.08;99841.78;10421345;28;20059;-72
2023/06/13 19:15:48;;;;;;;3.45;1.90;;;;;;;16.87;54.50;99851.84;10443488;28;20077;-72
2023/06/13 19:20:52;;;;;;;2.83;2.10;;;;;;;16.88;54.39;99847.38;10438432;28;20099;-72
2023/06/13 19:25:54;;;;;;;1.90;1.65;;;;;;;16.79;54.49;99867.38;10463298;28;20045;-72
2023/06/13 19:30:56;;;;;;;4.57;2.25;;;;;;;16.78;54.77;99867.47;10435403;28;20069;-71
2023/06/13 19:35:59;;;;;;;3.08;1.77;;;;;;;16.65;55.41;99867.31;10421381;28;20033;-72
2023/06/13 19:41:01;;;;;;;2.80;1.70;;;;;;;16.61;56.27;99869.28;10421169;28;20054;-72
2023/06/13 19:46:03;;;;;;;4.18;1.88;;;;;;;16.64;56.13;99876.19;10431578;28;20075;-71
2023/06/13 19:51:06;;;;;;;3.05;1.98;;;;;;;16.54;56.66;99881.19;10463811;28;20036;-72
2023/06/13 19:56:16;;;;;;;3.08;1.88;;;;;;;16.43;56.98;99883.63;10461652;28;20029;-73
2023/06/13 20:01:18;;;;;;;2.28;1.80;;;;;;;16.36;56.96;99887.56;10463010;28;20037;-72
2023/06/13 20:06:23;;;;;;;2.47;2.17;;;;;;;16.32;57.67;99880.75;10460977;28;20449;-72
2023/06/13 20:11:27;;;;;;;3.20;2.13;;;;;;;16.40;57.69;99876.69;10462281;28;20055;-73
2023/06/13 20:16:31;;;;;;;2.47;2.08;;;;;;;16.39;57.99;99882.97;10462852;28;20112;-72
2023/06/13 20:21:33;;;;;;;4.65;1.92;;;;;;;16.32;58.23;99878.09;10462156;28;20041;-72
2023/06/13 20:26:37;;;;;;;3.38;1.85;;;;;;;16.44;58.37;99884.50;10460339;28;20052;-72
2023/06/13 20:31:41;;;;;;;5.38;2.13;;;;;;;16.36;58.76;99885.78;10461657;28;20560;-73
2023/06/13 20:36:44;;;;;;;3.03;1.95;;;;;;;16.24;59.68;99883.81;10461855;28;20043;-72
2023/06/13 20:41:48;;;;;;;3.25;2.42;;;;;;;16.26;59.94;99895.22;10459269;28;20045;-73
2023/06/13 20:46:49;;;;;;;2.88;2.40;;;;;;;16.14;60.12;99887.94;10459867;28;20048;-72
2023/06/13 20:51:52;;;;;;;2.40;1.88;;;;;;;16.27;59.75;99898.72;10461230;28;20049;-72
2023/06/13 20:56:54;;;;;;;3.47;2.42;;;;;;;16.02;60.93;99894.78;10459554;28;20174;-72
2023/06/13 21:01:56;;;;;;;3.95;2.33;;;;;;;16.23;59.11;99894.53;10459186;28;20433;-72
2023/06/13 21:06:58;;;;;;;3.58;1.95;;;;;;;16.18;59.49;99901.91;10459216;28;20049;-72
2023/06/13 21:12:00;;;;;;;3.13;2.00;;;;;;;16.14;59.58;99909.16;10458084;28;20487;-72
2023/06/13 21:17:02;;;;;;;4.78;2.33;;;;;;;16.12;59.90;99903.13;10458054;28;20133;-72
2023/06/13 21:22:07;;;;;;;6.28;2.55;;;;;;;16.03;59.96;99904.47;10458464;28;20049;-72
2023/06/13 21:27:10;;;;;;;2.92;2.22;;;;;;;15.89;60.76;99909.69;10457996;28;20426;-72
2023/06/13 21:32:12;;;;;;;3.75;2.17;;;;;;;15.89;60.76;99907.03;10459509;28;20045;-72
2023/06/13 21:37:14;;;;;;;5.57;2.15;;;;;;;15.79;61.29;99909.34;10458293;28;20041;-73
2023/06/13 21:42:15;;;;;;;3.05;2.10;;;;;;;15.82;61.31;99910.97;10457175;28;20045;-72
2023/06/13 21:47:17;;;;;;;2.55;2.20;;;;;;;15.73;62.17;99922.09;10457979;28;20419;-72
2023/06/13 21:52:19;;;;;;;2.22;2.00;;;;;;;15.81;61.77;99911.94;10457708;28;20495;-71
2023/06/13 21:57:21;;;;;;;3.00;2.35;;;;;;;15.66;62.16;99918.91;10457658;28;20071;-71
2023/06/13 22:02:22;;;;;;;3.38;2.17;;;;;;;15.45;61.95;99925.31;10457387;28;20049;-71
2023/06/13 22:07:28;;;;;;;4.03;2.20;;;;;;;15.51;61.96;99927.66;10456825;28;20094;-70
2023/06/13 22:12:33;;;;;;;2.80;1.90;;;;;;;15.51;61.31;99927.66;10457332;28;20086;-72
2023/06/13 22:17:36;;;;;;;3.10;1.83;;;;;;;15.37;60.94;99931.06;10455772;28;20053;-73
2023/06/13 22:22:38;;;;;;;3.15;1.90;;;;;;;15.25;61.00;99929.03;10456829;28;20055;-71
2023/06/13 22:27:40;;;;;;;3.03;1.70;;;;;;;15.22;61.09;99937.13;10456244;28;20140;-71
2023/06/13 22:32:41;;;;;;;3.38;1.80;;;;;;;15.28;60.44;99936.84;10455753;28;20095;-71
2023/06/13 22:37:43;;;;;;;2.03;1.73;;;;;;;15.14;61.04;99941.06;10456598;28;20041;-71
2023/06/13 22:42:45;;;;;;;7.18;2.08;;;;;;;15.22;60.38;99947.72;10456675;28;20033;-71
2023/06/13 22:47:51;;;;;;;1.70;1.60;;;;;;;15.23;60.61;99944.13;10451557;22;20120;-67
2023/06/13 22:52:53;;;;;;;3.63;2.50;;;;;;;14.99;61.03;99948.94;10413279;28;20049;-67
2023/06/13 22:57:55;;;;;;;2.90;1.60;;;;;;;14.94;61.00;99954.47;10414487;28;20077;-68
2023/06/13 23:03:01;;;;;;;1.70;1.60;;;;;;;15.08;59.99;99946.66;10414520;28;20483;-68
2023/06/13 23:08:03;;;;;;;2.78;1.48;;;;;;;14.84;60.74;99953.22;10414572;28;20052;-67
2023/06/13 23:13:05;;;;;;;5.60;1.67;;;;;;;14.63;61.47;99956.00;10414055;28;20155;-68
2023/06/13 23:18:06;;;;;;;2.25;1.55;;;;;;;14.52;62.03;99958.34;10417777;28;20414;-68
2023/06/13 23:23:08;;;;;;;3.33;1.60;;;;;;;14.58;61.88;99951.88;10421697;28;20044;-68
2023/06/13 23:28:10;;;;;;;2.75;1.60;;;;;;;14.63;62.27;99961.28;10421376;28;20077;-67